Cyrus, Kentucky
Current Conditions -  °F | °C
As of 6:53 PM on Thursday 18 Dec 2014 (Local Time) from KJKL Reporting Station
Overcast Overcast  
Wind Chill: 32°   Ceiling: 7000
Heat Index: 32°   Visibility: 10mi
Dew Point: 23°   Wind: 0mph
Humidity: 69%   Direction: NA
Pressure: 30.17"   Gusts: NA
Location:  37.7261°N, 83.0786°W
Report Text: KJKL 182353Z AUTO 00000KT 10SM OVC070 00/M05 A3017 RMK AO2 SLP228 T00001050 10017 20000 55002
Loading
Personal Weather Stations






























Interactive Weather Map New forecast layout! Learn more

10-Day Weather Forecast

Advertisements
Track Severe Weather on mobile